Aeroporto :
LOGIN :

Iscrizione | Disclaimer

   EN    FR    IT 

 










Sommario :    VFR   VFR Marginale   IFR   IFR Intensivo   IFR Molto Intensivo
Visibilità : 
Base nubi : 
>= 8 km
>= 3000ft
5 / 8 km
1000 / 3000 ft
1500m / 5 km
500 / 1000 ft
800 / 1500m
200 / 500 ft
< 800m
< 200 ft
Simboli :   Temporali  Nebbia  Neve Forte  Precipitazioni Forti  Vento > 20 kt
SIGMETs :   Varie  Temporali  Ghiacco  Turbolenza  Onda orograficha  Ceneri Vulcaniche






- Altitudine del aeroporto : 401 ft
- Codice IATA : LEQ


EGHC - Land's End

ULTIMO METAR :
  • 191220Z 30010KT 9999 FEW018 SCT020 13/09 Q1002

METARs OBSOLETI :
  • 191150Z 30010KT 9999 FEW018 FEW019CB 13/09 Q1002
  • 191120Z 31010KT 9999 FEW018 FEW019CB 13/09 Q1002
  • 191050Z 31011KT 9999 FEW018 FEW020CB 13/09 Q1002
  • 191020Z 31009KT 9999 FEW016 SCT018 FEW022CB 13/09 Q1002
  • 190950Z 30012KT 9999 FEW018 13/09 Q1002

TAF TAF EGHC
Valido dal 19 a 12 ore il 19 a 18 ore UTC


191103Z 1912/1918 30008KT 9999 SCT025
TEMPO 1912/1918 6000 SHRA
PROB30
TEMPO 1912/1918 3000 +SHRA BKN010 BKN020CB



MetMap, La meteo Aeronautica in un colpo d'occhio ! - Copyright ORBIFLY Dicembre 2007 - Disclaimer

ORBIFLY MET'MAP TEAM :

Programmazione e sviluppo : Alexandra Zaïnal
Concezione e sviluppo : Baudouin d'Aumeries
Co-Programmazione e sviluppo : Marc-Olivier Méhu
Supporto tecnico e logistico : Manuel Goepfert
Aiuto per la traduzione : Arnaldo La Scala

Contatto : metmap@orbifly.com




FONTI E CREDITI :

   NOAA